Weather at Břeclav Airport

Public forecast

Using degrees Celsius for public forecast. Weather courtesy of forecast.io.

Closest aviation weather report (METAR) to Břeclav Airport

Closest report is Brno-Tuřany Airport, 23.1 nm (42.7 km) NNW. Retrieved 2020/12/04 10:30 UTC (26 minutes ago):

LKTB 041030Z 12008KT 9000 OVC009 03/01 Q1001 R27/29//95 NOSIG

Closest aviation forecast (TAF) to Břeclav Airport

Closest forecast is Brno-Tuřany Airport, 23.1 nm (42.7 km) NNW. Retrieved 2020/12/04 06:06 UTC (5 hours ago):

TAF LKTB 040500Z 0406/0512 14016KT 9999 OVC009 TEMPO 0406/0411 4000 -DZ BR BKN004 PROB40 TEMPO 0406/0414 15018G28KT TEMPO 0411/0419 9999 OVC013 BECMG 0414/0416 15011KT TEMPO 0419/0511 2500 BR BKN004 PROB30 TEMPO 0504/0512 14014G24KT